createdAt,value
2022-08-23T00:00:27.287Z,0.00
2022-08-23T00:01:27.384Z,0.00
2022-08-23T00:02:27.412Z,0.00
2022-08-23T00:03:27.299Z,0.00
2022-08-23T00:04:28.449Z,0.00
2022-08-23T00:05:28.265Z,0.00
2022-08-23T00:06:27.805Z,0.00
2022-08-23T00:07:27.266Z,0.00
2022-08-23T00:08:27.228Z,0.00
2022-08-23T00:09:27.274Z,0.00
2022-08-23T00:10:27.233Z,0.00
2022-08-23T00:11:27.253Z,0.00
2022-08-23T00:12:27.208Z,0.00
2022-08-23T00:13:47.300Z,0.00
2022-08-23T00:14:28.201Z,0.00
2022-08-23T00:15:27.196Z,0.00
2022-08-23T00:16:27.185Z,0.00
2022-08-23T00:17:34.181Z,0.00
2022-08-23T00:18:28.154Z,0.00
2022-08-23T00:19:27.182Z,0.00
2022-08-23T00:20:27.180Z,0.00
2022-08-23T00:21:27.118Z,0.00
2022-08-23T00:22:27.094Z,0.00
2022-08-23T00:23:27.192Z,0.00
2022-08-23T00:24:27.120Z,0.00
2022-08-23T00:26:02.309Z,0.00
2022-08-23T00:26:27.061Z,0.00
2022-08-23T00:27:27.050Z,0.00
2022-08-23T00:28:27.035Z,0.00
2022-08-23T00:29:27.027Z,0.00
2022-08-23T00:30:27.012Z,0.00
2022-08-23T00:31:28.736Z,0.00
2022-08-23T00:32:27.022Z,0.00
2022-08-23T00:33:27.109Z,0.00
2022-08-23T00:34:26.998Z,0.00
2022-08-23T00:35:27.516Z,0.00
2022-08-23T00:36:27.025Z,0.00
2022-08-23T00:37:27.059Z,0.00
2022-08-23T00:38:33.849Z,0.00
2022-08-23T00:39:28.025Z,0.00
2022-08-23T00:40:26.996Z,0.00
2022-08-23T00:41:26.966Z,0.00
2022-08-23T00:42:26.953Z,0.00
2022-08-23T00:43:26.950Z,0.00
2022-08-23T00:44:26.937Z,0.00
2022-08-23T00:45:29.447Z,0.00
2022-08-23T00:46:27.777Z,0.00
2022-08-23T00:47:27.921Z,0.00
2022-08-23T00:48:26.907Z,0.00
2022-08-23T00:49:27.106Z,0.00
2022-08-23T00:50:26.879Z,0.00
2022-08-23T00:51:27.428Z,0.00
2022-08-23T00:52:26.902Z,0.00
2022-08-23T00:53:26.895Z,0.00
2022-08-23T00:54:26.838Z,0.00
2022-08-23T00:55:26.856Z,0.00
2022-08-23T00:56:26.834Z,0.00
2022-08-23T00:57:26.851Z,0.00
2022-08-23T00:58:26.842Z,0.00
2022-08-23T00:59:27.893Z,0.00
2022-08-23T01:00:26.811Z,0.00
2022-08-23T01:01:26.837Z,0.00
2022-08-23T01:02:26.819Z,0.00
2022-08-23T01:03:26.793Z,0.00
2022-08-23T01:04:26.786Z,0.00
2022-08-23T01:05:26.772Z,0.00
2022-08-23T01:06:26.760Z,0.00
2022-08-23T01:07:26.763Z,0.00
2022-08-23T01:08:26.742Z,0.00
2022-08-23T01:09:26.727Z,0.00
2022-08-23T01:10:27.754Z,0.00
2022-08-23T01:11:26.740Z,0.00
2022-08-23T01:12:32.496Z,0.00
2022-08-23T01:13:28.702Z,0.00
2022-08-23T01:14:26.697Z,0.00
2022-08-23T01:15:26.721Z,0.00
2022-08-23T01:16:26.657Z,0.00
2022-08-23T01:17:26.657Z,0.00
2022-08-23T01:18:26.667Z,0.00
2022-08-23T01:19:26.670Z,0.00
2022-08-23T01:20:27.084Z,0.00
2022-08-23T01:21:26.640Z,0.00
2022-08-23T01:22:26.649Z,0.00
2022-08-23T01:23:26.629Z,0.00
2022-08-23T01:25:06.116Z,0.00
2022-08-23T01:25:27.611Z,0.00
2022-08-23T01:26:26.613Z,0.00
2022-08-23T01:27:26.621Z,0.00
2022-08-23T01:28:26.582Z,0.00
2022-08-23T01:29:26.614Z,0.00
2022-08-23T01:30:26.663Z,0.00
2022-08-23T01:31:26.548Z,0.00
2022-08-23T01:32:26.603Z,0.00
2022-08-23T01:33:26.628Z,0.00
2022-08-23T01:34:26.636Z,0.00
2022-08-23T01:36:27.522Z,0.00
2022-08-23T01:37:26.523Z,0.00
2022-08-23T01:38:30.328Z,0.00
2022-08-23T01:39:27.504Z,0.00
2022-08-23T01:40:26.649Z,0.00
2022-08-23T01:41:26.477Z,0.00
2022-08-23T01:42:26.475Z,0.00
2022-08-23T01:43:26.538Z,0.00
2022-08-23T01:44:27.005Z,0.00
2022-08-23T02:02:42.052Z,0.00
2022-08-23T02:03:42.020Z,0.00
2022-08-23T02:04:42.010Z,0.00
2022-08-23T02:05:42.097Z,0.00
2022-08-23T02:06:41.990Z,0.00
2022-08-23T02:07:43.190Z,0.00
2022-08-23T02:08:43.209Z,0.00
2022-08-23T02:09:46.690Z,0.00
2022-08-23T02:10:43.139Z,0.00
2022-08-23T02:11:43.159Z,0.00
2022-08-23T02:12:43.138Z,0.00
2022-08-23T02:13:43.123Z,0.00
2022-08-23T02:14:43.114Z,0.00
2022-08-23T02:15:43.151Z,0.00
2022-08-23T02:16:43.133Z,0.00
2022-08-23T02:17:44.122Z,0.00
2022-08-23T02:18:43.097Z,0.00
2022-08-23T02:19:43.199Z,0.00
2022-08-23T02:20:43.056Z,0.00
2022-08-23T02:21:44.710Z,0.00
2022-08-23T02:22:43.058Z,0.00
2022-08-23T02:23:43.025Z,0.00
2022-08-23T02:24:43.082Z,0.00
2022-08-23T02:25:43.031Z,0.00
2022-08-23T02:26:46.320Z,0.00
2022-08-23T02:27:44.167Z,0.00
2022-08-23T02:28:43.110Z,0.00
2022-08-23T02:29:44.089Z,0.00
2022-08-23T02:30:43.583Z,0.00
2022-08-23T02:31:42.956Z,0.00
2022-08-23T02:32:42.983Z,0.00
2022-08-23T02:33:42.965Z,0.00
2022-08-23T02:34:42.948Z,0.00
2022-08-23T02:35:43.585Z,0.00
2022-08-23T02:36:42.966Z,0.00
2022-08-23T02:37:43.584Z,0.00
2022-08-23T02:38:42.951Z,0.00
2022-08-23T02:39:42.970Z,0.00
2022-08-23T02:40:42.873Z,0.00
2022-08-23T02:41:42.891Z,0.00
2022-08-23T02:42:42.880Z,0.00
2022-08-23T02:43:42.920Z,0.00
2022-08-23T02:44:42.869Z,0.00
2022-08-23T02:45:42.869Z,0.00
2022-08-23T02:46:43.784Z,0.00
2022-08-23T02:47:43.894Z,0.00
2022-08-23T02:48:42.844Z,0.00
2022-08-23T02:49:42.878Z,0.00
2022-08-23T02:50:42.874Z,0.00
2022-08-23T02:51:42.853Z,0.00
2022-08-23T02:52:42.847Z,0.00
2022-08-23T02:53:42.815Z,0.00
2022-08-23T02:54:42.820Z,0.00
2022-08-23T02:55:43.596Z,0.00
2022-08-23T02:56:42.774Z,0.00
2022-08-23T02:57:42.769Z,0.00
2022-08-23T02:58:42.788Z,0.00
2022-08-23T02:59:42.815Z,0.00
2022-08-23T03:00:42.774Z,0.00
2022-08-23T03:01:42.752Z,0.00
2022-08-23T03:02:42.808Z,0.00
2022-08-23T03:03:42.751Z,0.00
2022-08-23T03:04:42.770Z,0.00
2022-08-23T03:05:42.726Z,0.00
2022-08-23T03:06:42.742Z,0.00
2022-08-23T03:07:42.714Z,0.00
2022-08-23T03:08:42.744Z,0.00
2022-08-23T03:09:42.709Z,0.00
2022-08-23T03:10:42.663Z,0.00
2022-08-23T03:11:42.699Z,0.00
2022-08-23T03:12:42.735Z,0.00
2022-08-23T03:13:42.684Z,0.00
2022-08-23T03:14:42.717Z,0.00
2022-08-23T03:15:42.631Z,0.00
2022-08-23T03:16:42.638Z,0.00
2022-08-23T03:17:42.633Z,0.00
2022-08-23T03:18:42.674Z,0.00
2022-08-23T03:19:42.616Z,0.00
2022-08-23T03:20:42.623Z,0.00
2022-08-23T03:21:43.345Z,0.00
2022-08-23T03:22:54.283Z,0.00
2022-08-23T03:23:43.623Z,0.00
2022-08-23T03:24:42.554Z,0.00
2022-08-23T03:25:42.597Z,0.00
2022-08-23T03:26:42.572Z,0.00
2022-08-23T03:27:44.860Z,0.00
2022-08-23T03:28:42.563Z,0.00
2022-08-23T03:29:42.567Z,0.00
2022-08-23T03:30:42.724Z,0.00
2022-08-23T03:31:42.513Z,0.00
2022-08-23T03:32:49.057Z,0.00
2022-08-23T03:33:43.495Z,0.00
2022-08-23T03:34:42.484Z,0.00
2022-08-23T03:35:42.496Z,0.00
2022-08-23T03:36:42.511Z,0.00
2022-08-23T03:37:42.471Z,0.00
2022-08-23T03:38:42.471Z,0.00
2022-08-23T03:39:42.565Z,0.00
2022-08-23T03:40:42.434Z,0.00
2022-08-23T03:41:42.435Z,4.00
2022-08-23T03:42:42.466Z,0.00
2022-08-23T03:43:42.423Z,0.00
2022-08-23T03:44:42.413Z,0.00
2022-08-23T03:45:42.459Z,4.00
2022-08-23T03:46:43.411Z,4.00
2022-08-23T04:02:12.554Z,8.00
2022-08-23T04:03:12.450Z,12.00
2022-08-23T04:04:13.621Z,16.00
2022-08-23T04:05:13.608Z,16.00
2022-08-23T04:06:13.623Z,16.00
2022-08-23T04:07:13.584Z,20.00
2022-08-23T04:08:13.627Z,24.00
2022-08-23T04:09:13.560Z,24.00
2022-08-23T04:10:13.596Z,32.00
2022-08-23T04:11:13.587Z,36.00
2022-08-23T04:12:17.545Z,40.00
2022-08-23T04:13:13.551Z,44.00
2022-08-23T04:14:13.541Z,48.00
2022-08-23T04:15:13.522Z,56.00
2022-08-23T04:16:13.571Z,60.00
2022-08-23T04:17:13.514Z,68.00
2022-08-23T04:18:13.502Z,72.00
2022-08-23T04:19:13.499Z,80.00
2022-08-23T04:20:13.484Z,92.00
2022-08-23T04:21:13.518Z,100.00
2022-08-23T04:22:13.482Z,108.00
2022-08-23T04:23:13.528Z,120.00
2022-08-23T04:24:14.194Z,136.00
2022-08-23T04:25:29.936Z,160.00
2022-08-23T04:26:14.458Z,180.00
2022-08-23T04:27:13.448Z,204.00
2022-08-23T04:28:13.461Z,228.00
2022-08-23T04:29:14.205Z,252.00
2022-08-23T04:30:14.447Z,280.00
2022-08-23T04:31:13.475Z,316.00
2022-08-23T04:32:13.411Z,364.00
2022-08-23T04:33:17.819Z,416.00
2022-08-23T04:34:14.418Z,472.00
2022-08-23T04:35:14.376Z,528.00
2022-08-23T04:36:13.418Z,588.00
2022-08-23T04:37:13.421Z,652.00
2022-08-23T04:38:18.342Z,720.00
2022-08-23T04:39:14.382Z,796.00
2022-08-23T04:40:13.411Z,876.00
2022-08-23T04:41:13.349Z,964.00
2022-08-23T04:42:15.024Z,1060.00
2022-08-23T04:43:14.334Z,1168.00
2022-08-23T04:44:13.337Z,1280.00
2022-08-23T04:45:13.293Z,1404.00
2022-08-23T04:46:13.383Z,1544.00
2022-08-23T04:47:16.161Z,1672.00
2022-08-23T04:48:18.522Z,1816.00
2022-08-23T04:49:13.428Z,1956.00
2022-08-23T04:50:13.280Z,2104.00
2022-08-23T04:51:13.293Z,2268.00
2022-08-23T04:52:17.305Z,2456.00
2022-08-23T04:53:15.242Z,2664.00
2022-08-23T04:54:13.230Z,2872.00
2022-08-23T04:55:14.273Z,3084.00
2022-08-23T04:56:13.266Z,3288.00
2022-08-23T04:57:13.261Z,3488.00
2022-08-23T04:58:13.255Z,3672.00
2022-08-23T04:59:13.299Z,3932.00
2022-08-23T05:00:13.315Z,5284.00
2022-08-23T05:01:13.294Z,7364.00
2022-08-23T05:02:13.189Z,9440.00
2022-08-23T05:03:13.178Z,11168.00
2022-08-23T05:04:13.149Z,11872.00
2022-08-23T05:05:13.131Z,12416.00
2022-08-23T05:06:13.143Z,12960.00
2022-08-23T05:07:13.139Z,13440.00
2022-08-23T05:08:13.099Z,14016.00
2022-08-23T05:09:17.130Z,14560.00
2022-08-23T05:10:14.126Z,15392.00
2022-08-23T05:11:13.091Z,16096.00
2022-08-23T05:12:13.097Z,16768.00
2022-08-23T05:13:13.131Z,17280.00
2022-08-23T05:14:13.115Z,18272.00
2022-08-23T05:15:13.089Z,19296.00
2022-08-23T05:16:13.162Z,20480.00
2022-08-23T05:17:13.081Z,21056.00
2022-08-23T05:18:13.043Z,21856.00
2022-08-23T05:19:13.034Z,22656.00
2022-08-23T05:20:13.054Z,22624.00
2022-08-23T05:21:13.037Z,23360.00
2022-08-23T05:22:13.031Z,23744.00
2022-08-23T05:23:13.032Z,23552.00
2022-08-23T05:24:13.615Z,24192.00
2022-08-23T05:25:12.984Z,24096.00
2022-08-23T05:26:13.526Z,24768.00
2022-08-23T05:27:13.753Z,25344.00
2022-08-23T05:28:13.985Z,24928.00
2022-08-23T05:29:12.996Z,25024.00
2022-08-23T05:30:15.214Z,25824.00
2022-08-23T05:31:13.051Z,26688.00
2022-08-23T05:32:12.957Z,26752.00
2022-08-23T05:33:12.934Z,27328.00
2022-08-23T05:34:12.939Z,27776.00
2022-08-23T05:35:12.953Z,24896.00
2022-08-23T05:36:12.957Z,23168.00
2022-08-23T05:37:12.984Z,23616.00
2022-08-23T05:38:12.928Z,12200.00
2022-08-23T05:39:12.985Z,9024.00
2022-08-23T05:40:12.991Z,16128.00
2022-08-23T05:41:12.896Z,22272.00
2022-08-23T05:42:12.873Z,28064.00
2022-08-23T05:43:12.898Z,29056.00
2022-08-23T05:44:12.871Z,30464.00
2022-08-23T05:45:12.867Z,32864.00
2022-08-23T05:46:13.254Z,26624.00
2022-08-23T05:47:12.830Z,14912.00
2022-08-23T05:48:12.825Z,14400.00
2022-08-23T05:49:12.885Z,7452.00
2022-08-23T05:50:13.851Z,7508.00
2022-08-23T05:51:12.841Z,7712.00
2022-08-23T05:52:12.798Z,8012.00
2022-08-23T05:53:12.777Z,8416.00
2022-08-23T05:54:12.820Z,8856.00
2022-08-23T05:55:12.788Z,11476.00
2022-08-23T05:56:12.791Z,17152.00
2022-08-23T05:57:12.753Z,33024.00
2022-08-23T05:58:12.773Z,40288.00
2022-08-23T05:59:12.850Z,42048.00
2022-08-23T06:00:12.832Z,38912.00
2022-08-23T06:01:12.767Z,41152.00
2022-08-23T06:02:12.756Z,41696.00
2022-08-23T06:03:12.750Z,30816.00
2022-08-23T06:04:12.700Z,23360.00
2022-08-23T06:05:12.717Z,16608.00
2022-08-23T06:06:12.721Z,15680.00
2022-08-23T06:07:12.667Z,21056.00
2022-08-23T06:08:12.752Z,23616.00
2022-08-23T06:09:12.707Z,17408.00
2022-08-23T06:10:16.210Z,23104.00
2022-08-23T06:11:12.656Z,24160.00
2022-08-23T06:12:12.626Z,35648.00
2022-08-23T06:13:12.677Z,31072.00
2022-08-23T06:14:12.701Z,21024.00
2022-08-23T06:15:12.647Z,21856.00
2022-08-23T06:16:15.031Z,20352.00
2022-08-23T06:17:12.603Z,28832.00
2022-08-23T06:18:12.641Z,33440.00
2022-08-23T06:19:12.598Z,38432.00
2022-08-23T06:20:12.695Z,58656.00
2022-08-23T06:21:12.631Z,58720.00
2022-08-23T06:22:12.582Z,58752.00
2022-08-23T06:23:12.598Z,59264.00
2022-08-23T06:24:12.589Z,58496.00
2022-08-23T06:25:12.539Z,59424.00
2022-08-23T06:26:12.528Z,58400.00
2022-08-23T06:27:12.589Z,51392.00
2022-08-23T06:28:12.529Z,54976.00
2022-08-23T06:29:12.560Z,59328.00
2022-08-23T06:30:13.339Z,61056.00
2022-08-23T06:31:12.554Z,61248.00
2022-08-23T06:32:12.542Z,61856.00
2022-08-23T06:33:12.536Z,62592.00
2022-08-23T06:34:12.577Z,64096.00
2022-08-23T06:35:38.471Z,65216.00
2022-08-23T06:36:13.495Z,65056.00
2022-08-23T06:37:12.492Z,65120.00
2022-08-23T06:38:12.447Z,65824.00
2022-08-23T06:39:12.439Z,67008.00
2022-08-23T06:40:12.518Z,66048.00
2022-08-23T06:41:12.420Z,65536.00
2022-08-23T06:42:36.569Z,66176.00
2022-08-23T06:43:14.420Z,66976.00
2022-08-23T06:44:12.394Z,64800.00
2022-08-23T06:45:12.421Z,64384.00
2022-08-23T06:46:12.499Z,65056.00
2022-08-23T06:47:12.401Z,65568.00
2022-08-23T06:48:14.886Z,65568.00
2022-08-23T06:49:13.427Z,65280.00
2022-08-23T06:50:12.412Z,65376.00
2022-08-23T06:51:12.366Z,65504.00
2022-08-23T06:52:12.319Z,63392.00
2022-08-23T06:53:12.348Z,63328.00
2022-08-23T06:54:12.322Z,62496.00
2022-08-23T06:55:13.926Z,63328.00
2022-08-23T06:56:13.331Z,63168.00
2022-08-23T06:57:12.301Z,65184.00
2022-08-23T06:58:13.141Z,65824.00
2022-08-23T06:59:12.283Z,66336.00
2022-08-23T07:00:13.246Z,67424.00
2022-08-23T07:01:28.885Z,67424.00
2022-08-23T07:02:14.393Z,67808.00
2022-08-23T07:03:12.348Z,68928.00
2022-08-23T07:04:12.234Z,67712.00
2022-08-23T07:05:12.271Z,66784.00
2022-08-23T07:06:12.254Z,67584.00
2022-08-23T07:07:12.524Z,66624.00
2022-08-23T07:08:12.251Z,67200.00
2022-08-23T07:09:12.233Z,68288.00
2022-08-23T07:10:12.261Z,67456.00
2022-08-23T07:11:12.216Z,68992.00
2022-08-23T07:12:12.229Z,69664.00
2022-08-23T07:13:14.886Z,69120.00
2022-08-23T07:14:12.178Z,68352.00
2022-08-23T07:15:12.231Z,68192.00
2022-08-23T07:16:12.235Z,68512.00
2022-08-23T07:17:12.190Z,69312.00
2022-08-23T07:18:13.632Z,68768.00
2022-08-23T07:19:12.195Z,68256.00
2022-08-23T07:20:12.156Z,70528.00
2022-08-23T07:21:12.180Z,72800.00
2022-08-23T07:22:12.170Z,72288.00
2022-08-23T07:23:12.184Z,72384.00
2022-08-23T07:24:12.166Z,72832.00
2022-08-23T07:25:12.195Z,72928.00
2022-08-23T07:26:12.207Z,72704.00
2022-08-23T07:27:12.849Z,74048.00
2022-08-23T07:28:13.092Z,73088.00
2022-08-23T07:29:12.123Z,71680.00
2022-08-23T07:30:12.219Z,72064.00
2022-08-23T07:31:14.699Z,73216.00
2022-08-23T07:32:12.239Z,73152.00
2022-08-23T07:33:12.182Z,72640.00
2022-08-23T07:34:12.079Z,72672.00
2022-08-23T07:35:12.581Z,73440.00
2022-08-23T07:36:12.050Z,72736.00
2022-08-23T07:37:15.643Z,73472.00
2022-08-23T07:38:12.048Z,73920.00
2022-08-23T07:39:12.045Z,72960.00
2022-08-23T07:40:15.874Z,71520.00
2022-08-23T07:41:13.128Z,72096.00
2022-08-23T07:42:22.963Z,72448.00
2022-08-23T07:43:13.049Z,74688.00
2022-08-23T07:44:11.969Z,73664.00
2022-08-23T07:45:12.923Z,74816.00
2022-08-23T07:46:13.033Z,76064.00
2022-08-23T07:47:12.011Z,74592.00
2022-08-23T07:48:11.981Z,75488.00
2022-08-23T07:49:11.969Z,75872.00
2022-08-23T07:50:12.060Z,72864.00
2022-08-23T07:51:12.029Z,73216.00
2022-08-23T07:52:12.159Z,73728.00
2022-08-23T07:53:12.963Z,73856.00
2022-08-23T07:54:11.931Z,73984.00
2022-08-23T07:55:11.953Z,74464.00
2022-08-23T07:56:11.917Z,74304.00
2022-08-23T07:57:11.906Z,73664.00
2022-08-23T07:58:12.692Z,72416.00
2022-08-23T07:59:11.882Z,72256.00
2022-08-23T08:00:11.951Z,72640.00
2022-08-23T08:01:11.939Z,72416.00
2022-08-23T08:02:12.106Z,72512.00
2022-08-23T08:03:11.888Z,71136.00
2022-08-23T08:04:12.539Z,72704.00
2022-08-23T08:05:11.873Z,71680.00
2022-08-23T08:06:11.855Z,71424.00
2022-08-23T08:07:19.428Z,70944.00
2022-08-23T08:08:13.819Z,70400.00
2022-08-23T08:09:11.851Z,69056.00
2022-08-23T08:10:11.846Z,70336.00
2022-08-23T08:11:11.819Z,70304.00
2022-08-23T08:12:11.832Z,70848.00
2022-08-23T08:13:11.782Z,69440.00
2022-08-23T08:14:12.316Z,69088.00
2022-08-23T08:15:11.822Z,68480.00
2022-08-23T08:16:11.819Z,69856.00
2022-08-23T08:17:12.763Z,69056.00
2022-08-23T08:18:11.783Z,68000.00
2022-08-23T08:19:11.760Z,69472.00
2022-08-23T08:20:11.794Z,69472.00
2022-08-23T08:21:11.743Z,68960.00
2022-08-23T08:22:11.777Z,68960.00
2022-08-23T08:23:11.743Z,68704.00
2022-08-23T08:24:11.708Z,69920.00
2022-08-23T08:25:11.719Z,70048.00
2022-08-23T08:26:11.703Z,70048.00
2022-08-23T08:27:11.695Z,68704.00
2022-08-23T08:28:15.927Z,68416.00
2022-08-23T08:29:12.694Z,69312.00
2022-08-23T08:30:11.821Z,68896.00
2022-08-23T08:31:13.182Z,68256.00
2022-08-23T08:32:13.949Z,69504.00
2022-08-23T08:33:11.676Z,68064.00
2022-08-23T08:34:11.642Z,64064.00
2022-08-23T08:35:11.708Z,60256.00
2022-08-23T08:36:11.649Z,68704.00
2022-08-23T08:37:11.632Z,67264.00
2022-08-23T08:38:11.655Z,59712.00
2022-08-23T08:39:11.633Z,67040.00
2022-08-23T08:40:11.646Z,58016.00
2022-08-23T08:41:11.630Z,61376.00
2022-08-23T08:42:11.623Z,68224.00
2022-08-23T08:43:11.624Z,67936.00
2022-08-23T08:44:15.802Z,65248.00
2022-08-23T08:45:12.627Z,65920.00
2022-08-23T08:46:11.590Z,69408.00
2022-08-23T08:47:11.569Z,67264.00
2022-08-23T08:48:13.670Z,65728.00
2022-08-23T08:49:12.564Z,66272.00
2022-08-23T08:50:11.549Z,65920.00
2022-08-23T08:51:11.520Z,65504.00
2022-08-23T08:52:11.579Z,65728.00
2022-08-23T08:53:11.501Z,64512.00
2022-08-23T08:54:11.532Z,65504.00
2022-08-23T08:55:11.548Z,66816.00
2022-08-23T08:56:11.508Z,63744.00
2022-08-23T08:57:12.518Z,61632.00
2022-08-23T08:58:11.489Z,60704.00
2022-08-23T08:59:11.460Z,62208.00
2022-08-23T09:00:11.504Z,63264.00
2022-08-23T09:01:11.464Z,62432.00
2022-08-23T09:02:32.580Z,63104.00
2022-08-23T09:03:12.571Z,65760.00
2022-08-23T09:04:11.487Z,68992.00
2022-08-23T09:05:11.451Z,81760.00
2022-08-23T09:06:11.457Z,61696.00
2022-08-23T09:07:11.432Z,26656.00
2022-08-23T09:08:11.425Z,22784.00
2022-08-23T09:09:11.448Z,22016.00
2022-08-23T09:10:11.480Z,21632.00
2022-08-23T09:11:11.439Z,21440.00
2022-08-23T09:12:11.422Z,21408.00
2022-08-23T09:13:11.464Z,21056.00
2022-08-23T09:14:12.832Z,20992.00
2022-08-23T09:15:11.364Z,20896.00
2022-08-23T09:16:11.386Z,20640.00
2022-08-23T09:17:11.388Z,20480.00
2022-08-23T09:18:11.377Z,20352.00
2022-08-23T09:19:11.399Z,20256.00
2022-08-23T09:20:11.363Z,20096.00
2022-08-23T09:21:11.341Z,19968.00
2022-08-23T09:22:11.378Z,19872.00
2022-08-23T09:23:11.307Z,19808.00
2022-08-23T09:24:11.380Z,19680.00
2022-08-23T09:25:11.317Z,19552.00
2022-08-23T09:26:11.331Z,19520.00
2022-08-23T09:27:11.339Z,19424.00
2022-08-23T09:28:11.281Z,19360.00
2022-08-23T09:29:11.311Z,19200.00
2022-08-23T09:30:11.300Z,19136.00
2022-08-23T09:31:11.327Z,19136.00
2022-08-23T09:32:12.299Z,19296.00
2022-08-23T09:33:11.248Z,19488.00
2022-08-23T09:34:11.248Z,19712.00
2022-08-23T09:35:12.293Z,20096.00
2022-08-23T09:36:11.272Z,19808.00
2022-08-23T09:37:11.237Z,19840.00
2022-08-23T09:38:11.384Z,20032.00
2022-08-23T09:39:12.231Z,20544.00
2022-08-23T09:40:11.332Z,21472.00
2022-08-23T09:41:12.242Z,22464.00
2022-08-23T09:42:11.240Z,23200.00
2022-08-23T09:43:11.194Z,23456.00
2022-08-23T09:44:11.188Z,24064.00
2022-08-23T09:45:11.175Z,25184.00
2022-08-23T09:46:11.263Z,25696.00
2022-08-23T09:47:11.183Z,24800.00
2022-08-23T09:48:11.236Z,23712.00
2022-08-23T09:49:11.146Z,22592.00
2022-08-23T09:50:11.171Z,21824.00
2022-08-23T09:51:12.167Z,21216.00
2022-08-23T09:52:11.161Z,20672.00
2022-08-23T09:53:11.175Z,20128.00
2022-08-23T09:54:11.813Z,19648.00
2022-08-23T09:55:11.130Z,19392.00
2022-08-23T09:56:11.106Z,18944.00
2022-08-23T09:57:11.158Z,18304.00
2022-08-23T09:58:11.159Z,17632.00
2022-08-23T09:59:11.103Z,17184.00
2022-08-23T10:00:11.068Z,16616.00
2022-08-23T10:01:11.127Z,16420.00
2022-08-23T10:02:11.132Z,16104.00
2022-08-23T10:03:11.066Z,15868.00
2022-08-23T10:04:11.109Z,15604.00
2022-08-23T10:05:12.085Z,15528.00
2022-08-23T10:06:11.070Z,15372.00
2022-08-23T10:07:11.081Z,15440.00
2022-08-23T10:08:11.132Z,15188.00
2022-08-23T10:09:11.048Z,15056.00
2022-08-23T10:10:11.016Z,14932.00
2022-08-23T10:11:10.998Z,14944.00
2022-08-23T10:12:11.015Z,14788.00
2022-08-23T10:13:10.989Z,14572.00
2022-08-23T10:14:11.360Z,14416.00
2022-08-23T10:15:11.011Z,15320.00
2022-08-23T10:16:11.113Z,14192.00
2022-08-23T10:17:10.969Z,14184.00
2022-08-23T10:18:11.678Z,13968.00
2022-08-23T10:19:10.984Z,13876.00
2022-08-23T10:20:10.998Z,13772.00
2022-08-23T10:21:10.938Z,13676.00
2022-08-23T10:22:10.971Z,13592.00
2022-08-23T10:23:10.971Z,13500.00
2022-08-23T10:24:10.915Z,13392.00
2022-08-23T10:25:10.963Z,13284.00
2022-08-23T10:26:10.942Z,13168.00
2022-08-23T10:27:10.901Z,13116.00
2022-08-23T10:28:10.931Z,12964.00
2022-08-23T10:29:10.937Z,12844.00
2022-08-23T10:30:10.954Z,12716.00
2022-08-23T10:31:11.017Z,12704.00
2022-08-23T10:32:10.909Z,12596.00
2022-08-23T10:33:10.911Z,12608.00
2022-08-23T10:34:11.852Z,12440.00
2022-08-23T10:35:10.849Z,12380.00
2022-08-23T10:36:10.869Z,12268.00
2022-08-23T10:37:10.911Z,12168.00
2022-08-23T10:38:10.820Z,12036.00
2022-08-23T10:39:10.816Z,11956.00
2022-08-23T10:40:10.850Z,11876.00
2022-08-23T10:41:10.838Z,11764.00
2022-08-23T10:42:10.893Z,11628.00
2022-08-23T10:43:16.273Z,11604.00
2022-08-23T10:44:10.945Z,11576.00
2022-08-23T10:45:10.813Z,11448.00
2022-08-23T10:46:10.870Z,11376.00
2022-08-23T10:47:10.804Z,10652.00
2022-08-23T10:48:11.653Z,11244.00
2022-08-23T10:49:10.753Z,11188.00
2022-08-23T10:50:11.316Z,11152.00
2022-08-23T10:51:10.737Z,11068.00
2022-08-23T10:52:10.733Z,11024.00
2022-08-23T10:53:10.971Z,10980.00
2022-08-23T10:54:10.765Z,10956.00
2022-08-23T10:55:10.750Z,10868.00
2022-08-23T10:56:10.709Z,10832.00
2022-08-23T10:57:10.712Z,10664.00
2022-08-23T10:58:10.720Z,10692.00
2022-08-23T10:59:10.912Z,10652.00
2022-08-23T11:00:10.671Z,10628.00
2022-08-23T11:01:10.715Z,10424.00
2022-08-23T11:02:10.686Z,10524.00
2022-08-23T11:03:10.680Z,10528.00
2022-08-23T11:04:11.305Z,10488.00
2022-08-23T11:05:10.659Z,10416.00
2022-08-23T11:06:10.646Z,10376.00
2022-08-23T11:07:10.653Z,10184.00
2022-08-23T11:08:10.657Z,10280.00
2022-08-23T11:09:10.630Z,10244.00
2022-08-23T11:10:16.354Z,10140.00
2022-08-23T11:11:11.634Z,10128.00
2022-08-23T11:12:11.022Z,10076.00
2022-08-23T11:13:10.611Z,10052.00
2022-08-23T11:14:10.615Z,10056.00
2022-08-23T11:15:10.570Z,9916.00
2022-08-23T11:16:10.614Z,9940.00
2022-08-23T11:17:10.658Z,10328.00
2022-08-23T11:18:10.587Z,9812.00
2022-08-23T11:19:11.383Z,9780.00
2022-08-23T11:20:10.631Z,9736.00
2022-08-23T11:21:10.551Z,9684.00
2022-08-23T11:22:10.521Z,9632.00
2022-08-23T11:23:10.558Z,9580.00
2022-08-23T11:24:10.563Z,9564.00
2022-08-23T11:25:10.526Z,9492.00
2022-08-23T11:26:10.515Z,9384.00
2022-08-23T11:27:10.543Z,9416.00
2022-08-23T11:28:10.501Z,9804.00
2022-08-23T11:29:10.483Z,9196.00
2022-08-23T11:30:10.548Z,9940.00
2022-08-23T11:31:11.826Z,9268.00
2022-08-23T11:32:10.466Z,9192.00
2022-08-23T11:33:10.476Z,9208.00
2022-08-23T11:34:10.493Z,9192.00
2022-08-23T11:35:10.476Z,9184.00
2022-08-23T11:36:10.476Z,9160.00
2022-08-23T11:37:10.506Z,9132.00
2022-08-23T11:38:10.522Z,9128.00
2022-08-23T11:39:10.464Z,9148.00
2022-08-23T11:40:13.618Z,9016.00
2022-08-23T11:41:11.408Z,9040.00
2022-08-23T11:42:10.452Z,9164.00
2022-08-23T11:43:10.450Z,8900.00
2022-08-23T11:44:10.390Z,8972.00
2022-08-23T11:45:10.385Z,9016.00
2022-08-23T11:46:10.443Z,9024.00
2022-08-23T11:47:11.338Z,8980.00
2022-08-23T11:48:10.405Z,8996.00
2022-08-23T11:49:10.345Z,8984.00
2022-08-23T11:50:10.819Z,8968.00
2022-08-23T11:51:10.359Z,8980.00
2022-08-23T11:52:10.651Z,8952.00
2022-08-23T11:53:10.337Z,8956.00
2022-08-23T11:54:10.350Z,8976.00
2022-08-23T11:55:10.456Z,8940.00
2022-08-23T11:56:10.325Z,8936.00
2022-08-23T11:57:10.296Z,8948.00
2022-08-23T11:58:10.272Z,9032.00
2022-08-23T11:59:10.267Z,9028.00
2022-08-23T12:00:11.327Z,9060.00
2022-08-23T12:01:10.244Z,9036.00
2022-08-23T12:02:14.194Z,9112.00
2022-08-23T12:03:12.453Z,9144.00
2022-08-23T12:04:11.610Z,9332.00
2022-08-23T12:05:10.303Z,9232.00
2022-08-23T12:06:12.589Z,9344.00
2022-08-23T12:07:10.232Z,9480.00
2022-08-23T12:08:10.490Z,9440.00
2022-08-23T12:09:12.197Z,9332.00
2022-08-23T12:10:10.307Z,9348.00
2022-08-23T12:11:10.230Z,9428.00
2022-08-23T12:12:10.214Z,9356.00
2022-08-23T12:13:10.211Z,9348.00
2022-08-23T12:14:10.317Z,9300.00
2022-08-23T12:15:11.981Z,9216.00
2022-08-23T12:16:16.369Z,9364.00
2022-08-23T12:17:12.203Z,9340.00
2022-08-23T12:18:10.166Z,9304.00
2022-08-23T12:19:10.180Z,9252.00
2022-08-23T12:20:16.421Z,8848.00
2022-08-23T12:21:11.152Z,9460.00
2022-08-23T12:22:10.172Z,9112.00
2022-08-23T12:23:10.132Z,8868.00
2022-08-23T12:24:10.287Z,9084.00
2022-08-23T12:25:10.111Z,9204.00
2022-08-23T12:26:10.138Z,9220.00
2022-08-23T12:27:10.126Z,9088.00
2022-08-23T12:28:10.121Z,9156.00
2022-08-23T12:29:10.071Z,9108.00
2022-08-23T12:30:10.171Z,9092.00
2022-08-23T12:31:13.503Z,9080.00
2022-08-23T12:32:10.112Z,9168.00
2022-08-23T12:33:10.131Z,9264.00
2022-08-23T12:34:10.096Z,9300.00
2022-08-23T12:35:10.056Z,9284.00
2022-08-23T12:36:16.434Z,9292.00
2022-08-23T12:37:11.017Z,9244.00
2022-08-23T12:38:10.063Z,9312.00
2022-08-23T12:39:10.070Z,9312.00
2022-08-23T12:40:10.062Z,9408.00
2022-08-23T12:41:10.025Z,10028.00
2022-08-23T12:42:10.021Z,9552.00
2022-08-23T12:43:10.035Z,9520.00
2022-08-23T12:44:10.966Z,9416.00
2022-08-23T12:45:10.016Z,9072.00
2022-08-23T12:46:09.998Z,8128.00
2022-08-23T12:47:09.961Z,8164.00
2022-08-23T12:48:10.402Z,8656.00